Time;durP1;ratioP1;P1;durP2;ratioP2;P2;SDS_P1;SDS_P2;PMS_P1;PMS_P2;Temp;Humidity;BMP_temperature;BMP_pressure;BME280_temperature;BME280_humidity;BME280_pressure;Samples;Min_cycle;Max_cycle;Signal;HPM_P1;HPM_P2
2022/11/09 00:01:30;;;;;;;4.85;3.85;;;28.40;94.90;;;;;;5083996;28;20033;-42
2022/11/09 00:04:01;;;;;;;6.70;3.83;;;28.40;94.60;;;;;;5084329;28;20029;-42
2022/11/09 00:06:32;;;;;;;5.53;3.45;;;28.30;94.60;;;;;;5084030;28;20358;-43
2022/11/09 00:09:02;;;;;;;5.45;3.70;;;28.30;94.60;;;;;;5084232;28;20032;-40
2022/11/09 00:11:29;;;;;;;8.60;4.25;;;28.30;94.60;;;;;;5084011;28;20324;-44
2022/11/09 00:13:55;;;;;;;9.25;4.40;;;28.30;94.50;;;;;;5084492;28;20296;-43
2022/11/09 00:16:22;;;;;;;8.05;4.45;;;28.30;94.60;;;;;;5084037;28;20032;-43
2022/11/09 00:18:52;;;;;;;6.90;5.15;;;28.30;94.60;;;;;;5083896;28;20067;-41
2022/11/09 00:21:21;;;;;;;7.50;5.47;;;28.30;94.60;;;;;;5083825;28;20157;-45
2022/11/09 00:23:48;;;;;;;9.82;6.43;;;28.30;94.60;;;;;;5083506;28;20032;-48
2022/11/09 00:26:17;;;;;;;9.95;7.72;;;28.30;94.80;;;;;;5083602;28;20091;-48
2022/11/09 00:28:44;;;;;;;11.75;9.02;;;28.30;94.60;;;;;;5084139;28;20039;-41
2022/11/09 00:31:12;;;;;;;14.32;9.85;;;28.30;94.60;;;;;;5083608;28;20324;-45
2022/11/09 00:33:39;;;;;;;11.65;9.70;;;28.30;94.60;;;;;;5083722;28;20212;-40
2022/11/09 00:36:10;;;;;;;11.02;8.52;;;28.30;94.60;;;;;;5083866;28;20036;-48
2022/11/09 00:38:39;;;;;;;19.67;7.70;;;28.20;94.60;;;;;;5087806;28;20058;-39
2022/11/09 00:41:11;;;;;;;11.25;7.70;;;28.20;94.60;;;;;;5087149;28;20056;-44
2022/11/09 00:43:39;;;;;;;14.60;7.75;;;28.20;94.60;;;;;;5087727;28;20084;-42
2022/11/09 00:46:06;;;;;;;13.30;7.90;;;28.20;94.60;;;;;;5087196;28;20032;-45
2022/11/09 00:48:36;;;;;;;16.00;10.00;;;28.20;94.60;;;;;;5086986;28;20017;-40
2022/11/09 00:51:14;;;;;;;15.63;9.85;;;28.20;94.70;;;;;;5087779;28;20027;-40
2022/11/09 00:53:47;;;;;;;11.13;7.82;;;28.20;94.70;;;;;;5087124;28;20071;-45
2022/11/09 00:56:17;;;;;;;13.02;7.70;;;28.20;94.70;;;;;;5087345;28;20197;-42
2022/11/09 00:58:43;;;;;;;12.85;7.47;;;28.20;94.80;;;;;;5086988;28;20099;-42
2022/11/09 01:01:19;;;;;;;23.90;7.85;;;28.10;94.80;;;;;;5087274;28;20016;-43
2022/11/09 01:03:46;;;;;;;23.15;7.03;;;28.10;94.80;;;;;;5086982;28;20024;-40
2022/11/09 01:06:21;;;;;;;14.57;7.18;;;28.10;94.90;;;;;;5086255;28;20036;-42
2022/11/09 01:08:48;;;;;;;40.80;7.93;;;28.10;95.00;;;;;;5082205;28;20351;-39
2022/11/09 01:11:19;;;;;;;34.00;8.05;;;28.10;95.10;;;;;;5086986;28;20028;-42
2022/11/09 01:13:46;;;;;;;46.45;8.32;;;28.00;95.20;;;;;;5086506;28;20097;-40
2022/11/09 01:16:16;;;;;;;42.28;8.15;;;28.00;95.30;;;;;;5084265;28;20025;-45
2022/11/09 01:18:43;;;;;;;33.58;8.88;;;27.90;95.40;;;;;;5075517;28;20028;-41
2022/11/09 01:21:24;;;;;;;35.47;7.88;;;27.90;95.50;;;;;;5083523;28;20029;-43
2022/11/09 01:23:57;;;;;;;37.13;9.05;;;27.80;95.50;;;;;;5079007;28;20040;-40
2022/11/09 01:26:24;;;;;;;63.63;10.25;;;27.80;95.60;;;;;;5078531;28;20024;-39
2022/11/09 01:28:51;;;;;;;63.72;10.40;;;27.80;95.70;;;;;;5076982;28;20343;-42
2022/11/09 01:31:19;;;;;;;71.78;10.82;;;27.80;95.80;;;;;;5081418;28;20255;-42
2022/11/09 01:33:46;;;;;;;78.85;11.93;;;27.80;95.70;;;;;;5073203;28;20032;-45
2022/11/09 01:36:21;;;;;;;83.63;10.80;;;27.80;95.90;;;;;;5080435;28;20048;-42
2022/11/09 01:38:48;;;;;;;69.85;11.07;;;27.80;95.60;;;;;;5084179;28;20039;-40
2022/11/09 01:41:26;;;;;;;84.53;14.13;;;27.80;95.60;;;;;;5085361;28;20099;-46
2022/11/09 01:44:12;;;;;;;95.70;15.02;;;27.80;95.50;;;;;;5085077;28;20043;-43
2022/11/09 01:46:51;;;;;;;75.43;12.40;;;27.80;95.50;;;;;;5085776;28;20306;-43
2022/11/09 01:49:33;;;;;;;57.60;11.05;;;27.80;95.50;;;;;;5084790;28;20016;-41
2022/11/09 01:52:07;;;;;;;45.35;9.55;;;27.80;95.50;;;;;;5086578;28;20327;-50
2022/11/09 01:54:40;;;;;;;112.95;12.75;;;27.80;95.60;;;;;;5085985;28;20316;-42
2022/11/09 01:57:12;;;;;;;60.25;11.43;;;27.80;95.60;;;;;;5086049;28;20029;-43
2022/11/09 01:59:42;;;;;;;;;;;27.80;95.50;;;;;;5076601;28;20021;-48
2022/11/09 02:02:11;;;;;;;61.25;10.80;;;27.80;95.70;;;;;;5083327;28;19908;-39
2022/11/09 02:04:44;;;;;;;56.35;11.13;;;27.80;95.70;;;;;;5085277;28;20097;-45
2022/11/09 02:07:12;;;;;;;48.17;10.30;;;27.80;95.70;;;;;;5084365;28;20096;-43
2022/11/09 02:09:54;;;;;;;45.55;10.13;;;27.80;95.70;;;;;;5085958;28;20062;-39
2022/11/09 02:12:25;;;;;;;45.45;9.23;;;27.80;95.70;;;;;;5070854;28;20037;-41
2022/11/09 02:14:53;;;;;;;47.17;9.75;;;27.80;95.70;;;;;;5066358;28;20126;-41
2022/11/09 02:17:21;;;;;;;32.58;9.32;;;27.80;95.70;;;;;;5085235;28;20201;-41
2022/11/09 02:19:47;;;;;;;32.03;8.60;;;27.80;95.70;;;;;;5085040;28;20238;-41
2022/11/09 02:22:14;;;;;;;26.52;7.75;;;27.80;95.70;;;;;;5078776;28;20036;-46
2022/11/09 02:24:41;;;;;;;21.98;7.82;;;27.80;95.60;;;;;;5068719;28;20029;-45
2022/11/09 02:27:08;;;;;;;19.02;7.75;;;27.80;95.60;;;;;;5065107;28;20078;-47
2022/11/09 02:29:41;;;;;;;19.55;9.00;;;27.80;95.70;;;;;;5077370;28;20399;-43
2022/11/09 02:32:16;;;;;;;29.05;19.52;;;27.80;95.70;;;;;;5078664;28;20029;-40
2022/11/09 02:34:43;;;;;;;32.20;18.65;;;27.80;95.70;;;;;;5073962;28;20040;-42
2022/11/09 02:37:10;;;;;;;25.52;16.88;;;27.80;95.70;;;;;;5076394;28;20028;-43
2022/11/09 02:39:37;;;;;;;22.83;13.93;;;27.80;95.60;;;;;;5085035;28;20044;-40
2022/11/09 02:42:10;;;;;;;22.00;12.13;;;27.80;95.60;;;;;;5084921;28;20217;-45
2022/11/09 02:44:42;;;;;;;19.55;10.45;;;27.80;95.60;;;;;;5074698;28;20095;-44
2022/11/09 02:47:09;;;;;;;13.70;9.90;;;27.80;95.60;;;;;;5073257;28;20264;-40
2022/11/09 02:49:36;;;;;;;13.77;8.90;;;27.80;95.60;;;;;;5081764;28;20024;-41
2022/11/09 02:52:02;;;;;;;12.43;8.50;;;27.80;95.60;;;;;;5084941;28;20037;-40
2022/11/09 02:54:29;;;;;;;12.73;8.30;;;27.80;95.60;;;;;;5075388;28;20305;-40
2022/11/09 02:56:58;;;;;;;10.80;7.15;;;27.80;95.60;;;;;;5064632;28;20217;-44
2022/11/09 02:59:24;;;;;;;10.88;7.13;;;27.80;95.50;;;;;;5067380;28;20017;-40
2022/11/09 03:01:53;;;;;;;9.02;6.78;;;27.80;95.50;;;;;;5073420;28;20287;-42
2022/11/09 03:04:20;;;;;;;13.95;6.47;;;27.80;95.50;;;;;;5068919;28;20027;-41
2022/11/09 03:06:46;;;;;;;10.27;6.35;;;27.80;95.50;;;;;;5078555;28;20366;-44
2022/11/09 03:09:13;;;;;;;13.13;6.30;;;27.80;95.40;;;;;;5077886;28;20012;-44
2022/11/09 03:11:41;;;;;;;10.05;5.65;;;27.80;95.50;;;;;;5073870;28;20086;-40
2022/11/09 03:14:10;;;;;;;8.00;5.22;;;27.80;95.40;;;;;;5073971;28;20123;-47
2022/11/09 03:16:38;;;;;;;9.52;5.90;;;27.80;95.40;;;;;;5077471;28;20032;-41
2022/11/09 03:19:06;;;;;;;8.10;6.18;;;27.80;95.40;;;;;;5076135;28;20083;-39
2022/11/09 03:21:35;;;;;;;13.02;8.98;;;27.80;95.40;;;;;;5074362;28;20017;-45
2022/11/09 03:24:02;;;;;;;14.38;11.95;;;27.70;95.30;;;;;;5074617;28;20095;-45
2022/11/09 03:26:28;;;;;;;20.23;17.58;;;27.70;95.40;;;;;;5075124;28;20361;-42
2022/11/09 03:28:55;;;;;;;19.20;14.52;;;27.70;95.40;;;;;;5074288;28;20013;-42
2022/11/09 03:31:21;;;;;;;14.35;12.95;;;27.70;95.30;;;;;;5074761;28;20037;-42
2022/11/09 03:33:48;;;;;;;13.57;11.88;;;27.70;95.30;;;;;;5075229;28;20012;-39
2022/11/09 03:36:15;;;;;;;13.02;11.30;;;27.70;95.30;;;;;;5075786;28;20036;-41
2022/11/09 03:38:41;;;;;;;11.02;9.07;;;27.70;95.30;;;;;;5075053;28;20190;-41
2022/11/09 03:41:08;;;;;;;10.15;8.70;;;27.70;95.20;;;;;;5071764;28;20308;-41
2022/11/09 03:43:34;;;;;;;10.68;7.32;;;27.70;95.20;;;;;;5064823;28;20327;-40
2022/11/09 03:46:02;;;;;;;7.20;6.18;;;27.70;95.20;;;;;;5064079;28;20087;-38
2022/11/09 03:48:28;;;;;;;8.73;5.43;;;27.70;95.20;;;;;;5063529;28;20067;-45
2022/11/09 03:50:55;;;;;;;9.27;5.47;;;27.70;95.20;;;;;;5064339;28;20048;-40
2022/11/09 03:53:22;;;;;;;5.93;4.55;;;27.70;95.20;;;;;;5069954;28;20037;-38
2022/11/09 03:55:48;;;;;;;5.38;4.53;;;27.70;95.20;;;;;;5083490;28;20028;-43
2022/11/09 03:58:15;;;;;;;7.85;4.07;;;27.70;95.20;;;;;;5082797;28;20033;-43
2022/11/09 04:00:41;;;;;;;7.03;4.35;;;27.60;95.10;;;;;;5084384;28;20025;-40
2022/11/09 04:03:08;;;;;;;5.65;4.15;;;27.60;95.00;;;;;;5083480;28;20340;-40
2022/11/09 04:05:34;;;;;;;5.47;4.00;;;27.60;95.10;;;;;;5084317;28;20036;-43
2022/11/09 04:08:01;;;;;;;4.85;3.97;;;27.60;95.30;;;;;;5083856;28;20036;-38
2022/11/09 04:10:28;;;;;;;5.40;3.70;;;27.60;95.00;;;;;;5084027;28;20283;-39
2022/11/09 04:12:54;;;;;;;6.07;3.72;;;27.60;95.10;;;;;;5087279;28;20101;-46
2022/11/09 04:15:21;;;;;;;7.05;3.60;;;27.60;95.10;;;;;;5088104;28;20058;-40
2022/11/09 04:17:55;;;;;;;8.05;3.53;;;27.60;95.10;;;;;;5087418;28;20029;-41
2022/11/09 04:20:22;;;;;;;5.30;3.30;;;27.50;95.10;;;;;;5088035;28;20316;-40
2022/11/09 04:23:10;;;;;;;7.47;3.50;;;27.60;95.20;;;;;;5087978;28;20304;-44
2022/11/09 04:25:38;;;;;;;6.80;3.45;;;27.50;95.10;;;;;;5088184;28;20304;-45
2022/11/09 04:28:06;;;;;;;10.77;3.53;;;27.60;95.20;;;;;;5087611;28;20036;-40
2022/11/09 04:30:35;;;;;;;8.43;3.88;;;27.50;95.10;;;;;;5087607;28;20027;-41
2022/11/09 04:33:02;;;;;;;7.20;3.20;;;27.50;95.00;;;;;;5087467;28;20040;-43
2022/11/09 04:35:31;;;;;;;7.13;3.33;;;27.50;95.00;;;;;;5087609;28;20028;-44
2022/11/09 04:38:03;;;;;;;7.97;3.25;;;27.50;95.00;;;;;;5087197;28;20081;-42
2022/11/09 04:40:32;;;;;;;6.75;3.30;;;27.40;94.90;;;;;;5087609;28;20028;-50
2022/11/09 04:43:00;;;;;;;5.60;2.78;;;27.40;94.90;;;;;;5087095;28;20036;-46
2022/11/09 04:45:27;;;;;;;5.60;3.20;;;27.40;94.90;;;;;;5087564;28;20028;-40
2022/11/09 04:48:00;;;;;;;5.45;3.05;;;27.40;94.90;;;;;;5087313;28;20193;-39
2022/11/09 04:50:28;;;;;;;8.25;3.20;;;27.40;94.90;;;;;;5087276;28;20070;-44
2022/11/09 04:52:54;;;;;;;7.80;3.15;;;27.40;94.80;;;;;;5086962;28;20028;-45
2022/11/09 04:55:21;;;;;;;7.75;3.15;;;27.40;94.80;;;;;;5087300;28;20036;-39
2022/11/09 04:57:48;;;;;;;12.13;3.13;;;27.40;94.80;;;;;;5086820;28;20070;-40
2022/11/09 05:00:14;;;;;;;5.85;3.00;;;27.40;94.80;;;;;;5087251;28;20092;-39
2022/11/09 05:02:41;;;;;;;7.93;2.80;;;27.30;94.80;;;;;;5086918;28;20064;-38
2022/11/09 05:05:07;;;;;;;5.40;3.03;;;27.40;94.80;;;;;;5086939;28;20020;-40
2022/11/09 05:07:35;;;;;;;7.15;2.75;;;27.30;94.80;;;;;;5086808;28;20024;-42
2022/11/09 05:10:02;;;;;;;4.55;2.72;;;27.30;94.80;;;;;;5086791;28;20033;-40
2022/11/09 05:12:28;;;;;;;5.63;2.97;;;27.30;94.80;;;;;;5086542;28;20028;-40
2022/11/09 05:14:55;;;;;;;6.10;2.80;;;27.30;94.90;;;;;;5086751;28;20197;-47
2022/11/09 05:17:21;;;;;;;7.93;3.08;;;27.30;94.80;;;;;;5086667;28;20079;-40
2022/11/09 05:19:48;;;;;;;7.30;3.13;;;27.30;94.90;;;;;;5086549;28;20037;-42
2022/11/09 05:24:59;;;;;;;9.13;3.10;;;27.30;94.90;;;;;;5086770;28;20088;-42
2022/11/09 05:27:26;;;;;;;5.25;2.83;;;27.30;94.90;;;;;;5086226;28;20040;-43
2022/11/09 05:29:52;;;;;;;8.48;3.10;;;27.30;94.90;;;;;;5086591;28;20074;-43
2022/11/09 05:32:19;;;;;;;8.38;3.28;;;27.20;94.90;;;;;;5086409;28;20228;-39
2022/11/09 05:34:45;;;;;;;6.93;3.00;;;27.30;94.90;;;;;;5085008;28;20024;-45
2022/11/09 05:37:12;;;;;;;8.50;3.00;;;27.30;95.00;;;;;;5086366;28;20043;-40
2022/11/09 05:39:38;;;;;;;7.75;2.97;;;27.30;94.90;;;;;;5086376;28;20008;-41
2022/11/09 05:42:05;;;;;;;11.38;3.38;;;27.20;94.90;;;;;;5086084;28;20090;-45
2022/11/09 05:44:32;;;;;;;6.28;2.80;;;27.20;94.90;;;;;;5086427;28;20095;-40
2022/11/09 05:46:58;;;;;;;5.28;2.58;;;27.20;94.90;;;;;;5086042;28;20092;-43
2022/11/09 05:49:25;;;;;;;8.00;3.13;;;27.20;94.90;;;;;;5085977;28;20036;-45
2022/11/09 05:51:51;;;;;;;7.95;2.90;;;27.20;94.90;;;;;;5086123;28;20020;-40
2022/11/09 05:54:17;;;;;;;8.02;3.00;;;27.20;94.90;;;;;;5085980;28;20024;-41
2022/11/09 05:56:44;;;;;;;6.45;3.22;;;27.20;94.90;;;;;;5085796;28;20032;-43
2022/11/09 05:59:11;;;;;;;15.00;3.35;;;27.20;95.00;;;;;;5085909;28;20036;-45
2022/11/09 06:01:37;;;;;;;3.88;2.90;;;27.20;95.00;;;;;;5086040;28;20059;-44
2022/11/09 06:04:04;;;;;;;7.20;3.03;;;27.20;95.00;;;;;;5085614;28;20023;-48
2022/11/09 06:06:30;;;;;;;3.50;2.70;;;27.20;95.00;;;;;;5085819;28;20024;-41
2022/11/09 06:08:57;;;;;;;4.78;2.92;;;27.20;94.90;;;;;;5085531;28;20248;-44
2022/11/09 06:11:23;;;;;;;6.78;2.92;;;27.20;94.90;;;;;;5085510;28;20025;-46
2022/11/09 06:13:51;;;;;;;7.03;2.50;;;27.20;94.80;;;;;;5085433;28;20046;-42
2022/11/09 06:16:17;;;;;;;5.00;2.50;;;27.10;94.70;;;;;;5085955;28;20193;-44
2022/11/09 06:18:44;;;;;;;6.13;2.92;;;27.10;94.80;;;;;;5083702;28;20087;-43
2022/11/09 06:21:10;;;;;;;4.22;2.60;;;27.10;94.80;;;;;;5085543;28;20056;-44
2022/11/09 06:23:37;;;;;;;7.45;2.60;;;27.10;94.70;;;;;;5085297;28;20091;-45
2022/11/09 06:26:08;;;;;;;4.68;2.60;;;27.10;94.70;;;;;;5085764;28;20035;-40
2022/11/09 06:28:36;;;;;;;6.45;2.50;;;27.10;94.80;;;;;;5085452;28;20020;-49
2022/11/09 06:31:05;;;;;;;9.93;2.97;;;27.00;94.70;;;;;;5085627;28;20226;-45
2022/11/09 06:33:33;;;;;;;5.85;2.70;;;27.00;94.80;;;;;;5084852;28;20036;-46
2022/11/09 06:36:01;;;;;;;4.97;2.50;;;27.00;94.80;;;;;;5085151;28;20044;-40
2022/11/09 06:38:28;;;;;;;5.47;2.50;;;27.00;94.80;;;;;;5084966;28;20028;-42
2022/11/09 06:40:57;;;;;;;5.68;2.50;;;27.00;94.70;;;;;;5085242;28;20074;-44
2022/11/09 06:43:24;;;;;;;6.47;2.40;;;27.00;94.70;;;;;;5085126;28;20028;-41
2022/11/09 06:45:51;;;;;;;9.30;2.85;;;27.00;94.70;;;;;;5085285;28;20224;-48
2022/11/09 06:48:18;;;;;;;14.10;3.13;;;27.00;94.70;;;;;;5084749;28;20083;-41
2022/11/09 06:50:44;;;;;;;13.05;3.15;;;27.00;94.70;;;;;;5085149;28;20032;-48
2022/11/09 06:53:13;;;;;;;6.30;2.45;;;27.00;94.70;;;;;;5084813;28;20316;-44
2022/11/09 06:55:40;;;;;;;7.53;2.78;;;27.00;94.70;;;;;;5084986;28;20204;-46
2022/11/09 06:58:09;;;;;;;6.63;2.63;;;27.00;94.60;;;;;;5084681;28;20036;-48
2022/11/09 07:00:36;;;;;;;7.47;2.58;;;27.00;94.60;;;;;;5084975;28;20009;-41
2022/11/09 07:03:03;;;;;;;8.35;2.55;;;26.90;94.60;;;;;;5084294;28;20024;-44
2022/11/09 07:05:30;;;;;;;6.10;2.38;;;27.00;94.70;;;;;;5084839;28;20204;-42
2022/11/09 07:07:57;;;;;;;8.93;3.03;;;26.90;94.70;;;;;;5084438;28;20025;-47
2022/11/09 07:10:24;;;;;;;10.52;2.40;;;26.90;94.70;;;;;;5084689;28;20039;-52
2022/11/09 07:12:51;;;;;;;4.93;2.35;;;26.90;94.70;;;;;;5084421;28;20048;-41
2022/11/09 07:15:18;;;;;;;4.05;2.45;;;26.90;94.70;;;;;;5084580;28;20189;-40
2022/11/09 07:17:44;;;;;;;4.65;2.53;;;26.90;94.70;;;;;;5084230;28;20208;-41
2022/11/09 07:20:13;;;;;;;5.88;2.25;;;26.90;94.70;;;;;;5084470;28;20064;-46
2022/11/09 07:22:40;;;;;;;8.40;2.85;;;26.90;94.60;;;;;;5084658;28;20036;-42
2022/11/09 07:25:09;;;;;;;9.05;2.33;;;26.90;94.60;;;;;;5084489;28;20016;-51
2022/11/09 07:27:36;;;;;;;6.90;2.55;;;26.90;94.60;;;;;;5084235;28;20101;-52
2022/11/09 07:30:03;;;;;;;8.77;2.70;;;26.90;94.60;;;;;;5084538;28;20189;-40
2022/11/09 07:32:33;;;;;;;9.18;2.60;;;26.90;94.70;;;;;;5083997;28;20031;-45
2022/11/09 07:34:59;;;;;;;5.80;2.50;;;26.90;94.70;;;;;;5084209;28;20258;-42
2022/11/09 07:37:26;;;;;;;5.97;2.42;;;26.90;94.60;;;;;;5084213;28;20283;-43
2022/11/09 07:39:52;;;;;;;8.77;2.67;;;26.90;94.60;;;;;;5083917;28;20016;-42
2022/11/09 07:42:19;;;;;;;10.00;2.85;;;26.90;94.70;;;;;;5083985;28;20033;-41
2022/11/09 07:44:45;;;;;;;7.90;2.78;;;26.90;94.70;;;;;;5083337;28;20024;-41
2022/11/09 07:47:12;;;;;;;9.95;2.45;;;26.90;94.70;;;;;;5082955;28;20031;-40
2022/11/09 07:49:39;;;;;;;7.22;2.30;;;26.90;94.70;;;;;;5084195;28;20039;-42
2022/11/09 07:52:05;;;;;;;5.88;2.28;;;26.90;94.70;;;;;;5084401;28;20059;-45
2022/11/09 07:54:32;;;;;;;7.38;2.40;;;26.80;94.70;;;;;;5084254;28;20051;-44
2022/11/09 07:56:59;;;;;;;6.07;2.45;;;26.90;94.70;;;;;;5084119;28;20082;-42
2022/11/09 07:59:25;;;;;;;5.28;2.35;;;26.90;94.70;;;;;;5084059;28;20048;-45
2022/11/09 08:01:52;;;;;;;5.50;2.30;;;26.90;94.80;;;;;;5083721;28;20017;-48
2022/11/09 08:04:19;;;;;;;7.20;2.72;;;26.80;94.80;;;;;;5084003;28;20036;-43
2022/11/09 08:06:45;;;;;;;4.88;2.40;;;26.80;94.80;;;;;;5084002;28;20024;-43
2022/11/09 08:09:12;;;;;;;6.28;2.35;;;26.80;94.80;;;;;;5083887;28;20213;-40
2022/11/09 08:11:38;;;;;;;7.80;2.60;;;26.80;94.80;;;;;;5083686;28;20036;-48
2022/11/09 08:14:05;;;;;;;8.18;2.95;;;26.80;94.70;;;;;;5083653;28;20063;-47
2022/11/09 08:16:31;;;;;;;6.70;2.63;;;26.80;94.70;;;;;;5083890;28;20303;-43
2022/11/09 08:18:58;;;;;;;7.07;2.38;;;26.80;94.70;;;;;;5083287;28;20028;-44
2022/11/09 08:21:24;;;;;;;8.07;2.63;;;26.80;94.70;;;;;;5083591;28;20060;-40
2022/11/09 08:23:51;;;;;;;4.78;2.60;;;26.80;94.80;;;;;;5083573;28;20013;-37
2022/11/09 08:26:17;;;;;;;7.30;2.28;;;26.70;94.80;;;;;;5083355;28;20235;-37
2022/11/09 08:28:44;;;;;;;6.10;2.35;;;26.70;94.80;;;;;;5083503;28;20040;-38
2022/11/09 08:31:10;;;;;;;10.73;3.00;;;26.70;94.80;;;;;;5084054;28;20021;-40
2022/11/09 08:33:39;;;;;;;7.45;2.42;;;26.70;94.80;;;;;;5083477;28;20099;-43
2022/11/09 08:36:17;;;;;;;6.70;2.40;;;26.70;94.90;;;;;;5083882;28;20036;-41
2022/11/09 08:38:44;;;;;;;7.22;2.45;;;26.70;94.90;;;;;;5083660;28;20036;-47
2022/11/09 08:41:12;;;;;;;3.88;2.30;;;26.70;94.90;;;;;;5084072;28;20032;-43
2022/11/09 08:43:39;;;;;;;6.22;2.58;;;26.70;94.90;;;;;;5083727;28;20032;-40
2022/11/09 08:46:05;;;;;;;6.72;2.40;;;26.70;94.90;;;;;;5084063;28;20091;-43
2022/11/09 08:48:32;;;;;;;9.65;2.47;;;26.70;94.90;;;;;;5083891;28;20352;-49
2022/11/09 08:50:59;;;;;;;9.27;2.78;;;26.70;94.90;;;;;;5084099;28;20028;-42
2022/11/09 08:53:28;;;;;;;10.15;4.40;;;26.70;94.90;;;;;;5083797;28;20043;-45
2022/11/09 08:55:55;;;;;;;9.60;5.15;;;26.70;94.90;;;;;;5084169;28;20032;-45
2022/11/09 08:58:22;;;;;;;11.48;9.40;;;26.70;94.90;;;;;;5085863;28;20061;-40
2022/11/09 09:00:48;;;;;;;16.98;9.85;;;26.70;95.00;;;;;;5087484;28;20033;-43
2022/11/09 09:03:15;;;;;;;14.32;7.20;;;26.70;95.30;;;;;;5087151;28;20028;-49
2022/11/09 09:05:41;;;;;;;7.45;5.72;;;26.70;95.00;;;;;;5087607;28;20016;-51
2022/11/09 09:08:10;;;;;;;8.07;4.60;;;26.70;95.00;;;;;;5086958;28;20044;-50
2022/11/09 09:10:37;;;;;;;7.45;3.70;;;26.70;95.00;;;;;;5087382;28;20030;-44
2022/11/09 09:13:04;;;;;;;6.00;3.75;;;26.60;95.00;;;;;;5086676;28;20316;-51
2022/11/09 09:15:31;;;;;;;9.77;3.83;;;26.60;95.00;;;;;;5087215;28;20056;-50
2022/11/09 09:18:01;;;;;;;7.80;3.67;;;26.60;95.00;;;;;;5086943;28;20343;-40
2022/11/09 09:20:28;;;;;;;8.02;3.17;;;26.60;95.00;;;;;;5086773;28;20078;-39
2022/11/09 09:22:58;;;;;;;7.97;3.35;;;26.60;95.00;;;;;;5086521;28;20066;-40
2022/11/09 09:25:26;;;;;;;5.65;2.92;;;26.60;95.00;;;;;;5087022;28;20024;-43
2022/11/09 09:27:52;;;;;;;9.77;3.00;;;26.60;95.00;;;;;;5087064;28;20040;-46
2022/11/09 09:30:19;;;;;;;5.32;2.85;;;26.60;95.00;;;;;;5086982;28;20023;-47
2022/11/09 09:32:45;;;;;;;8.10;3.03;;;26.60;95.00;;;;;;5086701;28;20058;-41
2022/11/09 09:35:12;;;;;;;10.15;3.20;;;26.60;95.00;;;;;;5086628;28;20250;-45
2022/11/09 09:37:39;;;;;;;9.77;3.10;;;26.60;95.00;;;;;;5086427;28;20028;-43
2022/11/09 09:40:06;;;;;;;7.43;2.97;;;26.60;95.10;;;;;;5086526;28;20321;-42
2022/11/09 09:42:41;;;;;;;8.40;3.00;;;26.50;95.00;;;;;;5086290;28;20301;-47
2022/11/09 09:45:20;;;;;;;9.63;2.97;;;26.50;95.00;;;;;;5086297;28;20096;-39
2022/11/09 09:47:53;;;;;;;10.57;2.95;;;26.50;94.90;;;;;;5086176;28;20082;-42
2022/11/09 09:50:36;;;;;;;7.32;2.80;;;26.50;95.00;;;;;;5086662;28;20367;-44
2022/11/09 09:53:31;;;;;;;9.48;2.72;;;26.50;95.00;;;;;;5086000;28;20088;-45
2022/11/09 09:56:18;;;;;;;3.67;2.30;;;26.50;95.00;;;;;;5086449;28;20313;-45
2022/11/09 09:58:51;;;;;;;7.72;2.85;;;26.50;95.00;;;;;;5086078;28;20320;-44
2022/11/09 10:01:22;;;;;;;10.15;2.90;;;26.50;95.00;;;;;;5086340;28;20024;-45
2022/11/09 10:03:49;;;;;;;14.52;2.90;;;26.50;95.00;;;;;;5085751;28;20032;-51
2022/11/09 10:06:40;;;;;;;7.07;2.45;;;26.50;95.00;;;;;;5086187;28;20036;-43
2022/11/09 10:09:25;;;;;;;6.93;2.83;;;26.40;95.00;;;;;;5084762;28;20036;-41
2022/11/09 10:12:00;;;;;;;7.65;2.95;;;26.50;95.00;;;;;;5086166;28;20029;-52
2022/11/09 10:14:52;;;;;;;20.17;3.40;;;26.40;95.00;;;;;;5086000;28;20092;-49
2022/11/09 10:17:48;;;;;;;6.63;3.20;;;26.40;95.00;;;;;;5085704;28;20325;-44
2022/11/09 10:20:21;;;;;;;10.27;3.80;;;26.40;94.90;;;;;;5068864;28;20614;-41
2022/11/09 10:23:16;;;;;;;8.38;3.35;;;26.40;95.00;;;;;;5085650;28;20380;-43
2022/11/09 10:25:45;;;;;;;9.55;2.95;;;26.40;95.00;;;;;;5086068;28;20039;-39
2022/11/09 10:28:16;;;;;;;9.10;3.00;;;26.40;95.00;;;;;;5085315;28;20047;-44
2022/11/09 10:30:42;;;;;;;22.77;4.70;;;26.30;94.90;;;;;;5085866;28;20032;-53
2022/11/09 10:33:09;;;;;;;13.65;3.50;;;26.40;94.90;;;;;;5085174;28;20059;-44
2022/11/09 10:35:43;;;;;;;10.45;3.28;;;26.40;94.90;;;;;;5085426;28;20032;-40
2022/11/09 10:38:30;;;;;;;10.98;3.55;;;26.40;94.90;;;;;;5085376;28;20035;-49
2022/11/09 10:41:10;;;;;;;12.10;3.25;;;26.40;94.90;;;;;;5085796;28;20035;-42
2022/11/09 10:43:36;;;;;;;7.10;3.33;;;26.40;94.90;;;;;;5085124;28;20032;-44
2022/11/09 10:46:08;;;;;;;9.40;3.38;;;26.40;94.90;;;;;;5085646;28;20194;-45
2022/11/09 10:48:39;;;;;;;12.40;3.55;;;26.40;94.90;;;;;;5084686;28;20032;-43
2022/11/09 10:51:26;;;;;;;8.85;3.22;;;26.40;94.90;;;;;;5084263;28;20461;-46
2022/11/09 10:54:18;;;;;;;9.50;3.13;;;26.40;95.00;;;;;;5084980;28;20078;-41
2022/11/09 10:56:48;;;;;;;6.78;3.00;;;26.40;95.00;;;;;;5084695;28;20036;-43
2022/11/09 10:59:38;;;;;;;10.50;2.70;;;26.40;95.20;;;;;;5084608;28;20249;-43
2022/11/09 11:02:41;;;;;;;13.43;6.57;;;26.40;95.00;;;;;;5084422;28;20036;-47
2022/11/09 11:05:08;;;;;;;33.60;15.98;;;26.40;94.90;;;;;;5063112;28;20032;-39
2022/11/09 11:07:35;;;;;;;26.08;10.93;;;26.40;95.00;;;;;;5084445;28;20071;-39
2022/11/09 11:10:17;;;;;;;36.75;13.95;;;26.40;95.00;;;;;;5084880;28;20091;-42
2022/11/09 11:13:11;;;;;;;48.05;17.25;;;26.40;95.00;;;;;;5084503;28;20045;-41
2022/11/09 11:15:41;;;;;;;55.70;18.45;;;26.40;95.10;;;;;;5083338;28;20329;-42
2022/11/09 11:18:18;;;;;;;42.40;13.20;;;26.30;95.10;;;;;;5084301;28;20091;-40
2022/11/09 11:20:45;;;;;;;26.52;10.32;;;26.30;95.10;;;;;;5084423;28;20060;-40
2022/11/09 11:23:18;;;;;;;28.15;9.82;;;26.30;95.10;;;;;;5084267;28;20091;-41
2022/11/09 11:26:05;;;;;;;23.38;7.63;;;26.30;95.10;;;;;;5084654;28;20082;-40
2022/11/09 11:28:52;;;;;;;13.50;6.00;;;26.30;95.00;;;;;;5084191;28;20107;-47
2022/11/09 11:31:20;;;;;;;14.57;5.10;;;26.40;95.00;;;;;;5082859;28;20043;-41
2022/11/09 11:33:47;;;;;;;12.48;4.60;;;26.40;95.00;;;;;;5082512;28;20348;-40
2022/11/09 11:36:33;;;;;;;12.35;5.10;;;26.40;95.00;;;;;;5083277;28;20033;-43
2022/11/09 11:39:24;;;;;;;12.40;5.18;;;26.40;95.00;;;;;;5083302;28;20024;-45
2022/11/09 11:42:02;;;;;;;11.38;3.75;;;26.40;94.90;;;;;;5084172;28;20044;-41
2022/11/09 11:44:29;;;;;;;10.23;3.42;;;26.40;94.90;;;;;;5084253;28;20087;-40
2022/11/09 11:47:18;;;;;;;8.23;3.25;;;26.40;94.90;;;;;;5084008;28;20157;-41
2022/11/09 11:50:43;;;;;;;8.38;3.33;;;26.40;94.80;;;;;;5084184;28;20051;-41
2022/11/09 11:53:34;;;;;;;6.95;3.63;;;26.40;94.80;;;;;;4992893;28;20393;-48
2022/11/09 11:56:15;;;;;;;9.45;3.42;;;26.40;94.90;;;;;;5002637;28;20141;-42
2022/11/09 11:59:15;;;;;;;7.53;3.33;;;26.40;94.90;;;;;;5074490;28;20039;-43
2022/11/09 12:01:49;;;;;;;6.63;3.53;;;26.40;95.00;;;;;;5083849;28;20033;-44
2022/11/09 12:04:30;;;;;;;10.18;4.10;;;26.40;95.00;;;;;;5084083;28;20058;-41
2022/11/09 12:07:15;;;;;;;6.43;3.63;;;26.40;95.00;;;;;;5083972;28;20036;-48
2022/11/09 12:09:51;;;;;;;8.55;4.00;;;26.50;95.00;;;;;;5084058;28;20047;-42
2022/11/09 12:12:34;;;;;;;10.57;4.10;;;26.50;95.00;;;;;;5083788;28;20037;-41
2022/11/09 12:15:29;;;;;;;8.60;3.75;;;26.50;95.00;;;;;;5083797;28;20040;-40
2022/11/09 12:18:07;;;;;;;8.68;4.00;;;26.60;94.90;;;;;;5083621;28;20328;-48
2022/11/09 12:20:56;;;;;;;9.70;4.32;;;26.60;94.90;;;;;;5084079;28;20104;-40
2022/11/09 12:23:38;;;;;;;10.75;4.47;;;26.60;95.00;;;;;;5083631;28;20040;-40
2022/11/09 12:26:14;;;;;;;15.30;4.40;;;26.60;95.00;;;;;;5084012;28;20028;-39
2022/11/09 12:28:54;;;;;;;14.38;4.40;;;26.60;95.00;;;;;;5083927;28;20255;-44
2022/11/09 12:31:24;;;;;;;11.00;3.95;;;26.60;95.00;;;;;;5083624;28;20028;-43
2022/11/09 12:34:17;;;;;;;18.10;4.70;;;26.70;95.10;;;;;;5086729;28;20028;-45
2022/11/09 12:37:11;;;;;;;11.50;3.67;;;26.70;95.10;;;;;;5079217;28;20240;-45
2022/11/09 12:39:50;;;;;;;10.20;3.67;;;26.70;95.00;;;;;;5087634;28;20047;-48
2022/11/09 12:42:38;;;;;;;6.80;3.20;;;26.70;94.90;;;;;;5087751;28;20038;-49
2022/11/09 12:45:17;;;;;;;11.25;3.50;;;26.70;94.90;;;;;;5086055;28;20332;-51
2022/11/09 12:47:46;;;;;;;11.88;2.78;;;26.70;94.90;;;;;;5087597;28;20366;-48
2022/11/09 12:50:22;;;;;;;7.45;3.45;;;26.70;94.90;;;;;;5087441;28;20028;-48
2022/11/09 12:52:51;;;;;;;7.35;3.17;;;26.80;94.90;;;;;;5087243;28;20029;-47
2022/11/09 12:55:35;;;;;;;9.05;3.60;;;26.80;95.00;;;;;;5087453;28;20082;-43
2022/11/09 12:58:02;;;;;;;9.07;3.25;;;26.80;95.20;;;;;;5087085;28;20263;-45
2022/11/09 13:00:35;;;;;;;7.93;3.20;;;26.80;95.00;;;;;;5085594;28;20209;-40
2022/11/09 13:03:06;;;;;;;7.75;2.85;;;26.80;95.10;;;;;;5083736;28;20082;-40